sensor_id;sensor_type;location;lat;lon;timestamp;temperature;humidity
12971;DHT22;6550;48.650;8.774;2023-02-05T00:00:17;6.20;99.90
12971;DHT22;6550;48.650;8.774;2023-02-05T00:02:44;6.30;99.90
12971;DHT22;6550;48.650;8.774;2023-02-05T00:05:11;6.30;99.90
12971;DHT22;6550;48.650;8.774;2023-02-05T00:07:40;6.20;99.90
12971;DHT22;6550;48.650;8.774;2023-02-05T00:10:07;6.40;99.90
12971;DHT22;6550;48.650;8.774;2023-02-05T00:12:34;6.30;99.90
12971;DHT22;6550;48.650;8.774;2023-02-05T00:15:00;6.30;99.90
12971;DHT22;6550;48.650;8.774;2023-02-05T00:17:34;6.20;99.90
12971;DHT22;6550;48.650;8.774;2023-02-05T00:20:03;6.20;99.90
12971;DHT22;6550;48.650;8.774;2023-02-05T00:22:30;6.20;99.90
12971;DHT22;6550;48.650;8.774;2023-02-05T00:24:59;6.20;99.90
12971;DHT22;6550;48.650;8.774;2023-02-05T00:27:26;6.10;99.90
12971;DHT22;6550;48.650;8.774;2023-02-05T00:29:53;6.20;99.90
12971;DHT22;6550;48.650;8.774;2023-02-05T00:32:20;6.10;99.90
12971;DHT22;6550;48.650;8.774;2023-02-05T00:34:49;6.20;99.90
12971;DHT22;6550;48.650;8.774;2023-02-05T00:37:18;6.30;99.90
12971;DHT22;6550;48.650;8.774;2023-02-05T00:39:44;6.10;99.90
12971;DHT22;6550;48.650;8.774;2023-02-05T00:42:11;6.40;99.90
12971;DHT22;6550;48.650;8.774;2023-02-05T00:44:40;6.10;99.90
12971;DHT22;6550;48.650;8.774;2023-02-05T00:47:07;6.20;99.90
12971;DHT22;6550;48.650;8.774;2023-02-05T00:49:33;6.30;99.90
12971;DHT22;6550;48.650;8.774;2023-02-05T00:52:00;6.10;99.90
12971;DHT22;6550;48.650;8.774;2023-02-05T00:54:27;6.20;99.90
12971;DHT22;6550;48.650;8.774;2023-02-05T00:56:53;6.20;99.90
12971;DHT22;6550;48.650;8.774;2023-02-05T00:59:20;6.10;99.90
12971;DHT22;6550;48.650;8.774;2023-02-05T01:01:49;6.00;99.90
12971;DHT22;6550;48.650;8.774;2023-02-05T01:04:16;6.10;99.90
12971;DHT22;6550;48.650;8.774;2023-02-05T01:06:45;6.10;99.90
12971;DHT22;6550;48.650;8.774;2023-02-05T01:09:14;6.00;99.90
12971;DHT22;6550;48.650;8.774;2023-02-05T01:11:40;6.10;99.90
12971;DHT22;6550;48.650;8.774;2023-02-05T01:14:10;5.90;99.90
12971;DHT22;6550;48.650;8.774;2023-02-05T01:16:36;6.00;99.90
12971;DHT22;6550;48.650;8.774;2023-02-05T01:19:05;6.10;99.90
12971;DHT22;6550;48.650;8.774;2023-02-05T01:21:32;6.00;99.90
12971;DHT22;6550;48.650;8.774;2023-02-05T01:24:01;6.00;99.90
12971;DHT22;6550;48.650;8.774;2023-02-05T01:26:33;6.00;99.90
12971;DHT22;6550;48.650;8.774;2023-02-05T01:28:59;6.00;99.90
12971;DHT22;6550;48.650;8.774;2023-02-05T01:31:30;6.10;99.90
12971;DHT22;6550;48.650;8.774;2023-02-05T01:33:58;5.90;99.90
12971;DHT22;6550;48.650;8.774;2023-02-05T01:36:25;5.90;99.90
12971;DHT22;6550;48.650;8.774;2023-02-05T01:38:52;5.80;99.90
12971;DHT22;6550;48.650;8.774;2023-02-05T01:41:19;5.80;99.90
12971;DHT22;6550;48.650;8.774;2023-02-05T01:44:06;5.90;99.90
12971;DHT22;6550;48.650;8.774;2023-02-05T01:46:34;5.80;99.90
12971;DHT22;6550;48.650;8.774;2023-02-05T01:49:02;5.70;99.90
12971;DHT22;6550;48.650;8.774;2023-02-05T01:51:29;5.70;99.90
12971;DHT22;6550;48.650;8.774;2023-02-05T01:53:56;5.60;99.90
12971;DHT22;6550;48.650;8.774;2023-02-05T01:56:33;5.60;99.90
12971;DHT22;6550;48.650;8.774;2023-02-05T01:59:15;5.60;99.90
12971;DHT22;6550;48.650;8.774;2023-02-05T02:01:43;5.50;99.90
12971;DHT22;6550;48.650;8.774;2023-02-05T02:04:12;5.60;99.90
12971;DHT22;6550;48.650;8.774;2023-02-05T02:06:43;5.60;99.90
12971;DHT22;6550;48.650;8.774;2023-02-05T02:09:09;5.60;99.90
12971;DHT22;6550;48.650;8.774;2023-02-05T02:11:41;5.50;99.90
12971;DHT22;6550;48.650;8.774;2023-02-05T02:14:09;5.50;99.90
12971;DHT22;6550;48.650;8.774;2023-02-05T02:16:37;5.60;99.90
12971;DHT22;6550;48.650;8.774;2023-02-05T02:19:12;5.50;99.90
12971;DHT22;6550;48.650;8.774;2023-02-05T02:29:59;5.50;99.90
12971;DHT22;6550;48.650;8.774;2023-02-05T02:32:34;5.50;99.90
12971;DHT22;6550;48.650;8.774;2023-02-05T02:35:23;5.50;99.90
12971;DHT22;6550;48.650;8.774;2023-02-05T02:37:56;5.50;99.90
12971;DHT22;6550;48.650;8.774;2023-02-05T02:45:47;5.40;99.90
12971;DHT22;6550;48.650;8.774;2023-02-05T02:48:15;5.40;99.90
12971;DHT22;6550;48.650;8.774;2023-02-05T02:50:48;5.40;99.90
12971;DHT22;6550;48.650;8.774;2023-02-05T02:53:21;5.40;99.90
12971;DHT22;6550;48.650;8.774;2023-02-05T02:55:56;5.40;99.90
12971;DHT22;6550;48.650;8.774;2023-02-05T03:01:29;5.50;99.90
12971;DHT22;6550;48.650;8.774;2023-02-05T03:04:02;5.30;99.90
12971;DHT22;6550;48.650;8.774;2023-02-05T03:06:30;5.30;99.90
12971;DHT22;6550;48.650;8.774;2023-02-05T03:09:13;5.50;99.90
12971;DHT22;6550;48.650;8.774;2023-02-05T03:11:42;5.40;99.90
12971;DHT22;6550;48.650;8.774;2023-02-05T03:14:09;5.30;99.90
12971;DHT22;6550;48.650;8.774;2023-02-05T03:16:38;5.20;99.90
12971;DHT22;6550;48.650;8.774;2023-02-05T03:19:07;5.30;99.90
12971;DHT22;6550;48.650;8.774;2023-02-05T03:21:41;5.50;99.90
12971;DHT22;6550;48.650;8.774;2023-02-05T03:24:09;5.30;99.90
12971;DHT22;6550;48.650;8.774;2023-02-05T03:26:36;5.30;99.90
12971;DHT22;6550;48.650;8.774;2023-02-05T03:29:12;5.20;99.90
12971;DHT22;6550;48.650;8.774;2023-02-05T03:31:45;5.20;99.90
12971;DHT22;6550;48.650;8.774;2023-02-05T03:39:29;5.10;99.90
12971;DHT22;6550;48.650;8.774;2023-02-05T03:47:35;5.10;99.90
12971;DHT22;6550;48.650;8.774;2023-02-05T04:07:30;4.90;99.90
12971;DHT22;6550;48.650;8.774;2023-02-05T04:19:51;4.60;99.90
12971;DHT22;6550;48.650;8.774;2023-02-05T04:22:17;4.60;99.90
12971;DHT22;6550;48.650;8.774;2023-02-05T04:32:08;4.40;99.90
12971;DHT22;6550;48.650;8.774;2023-02-05T04:34:34;4.40;99.90
12971;DHT22;6550;48.650;8.774;2023-02-05T04:37:01;5.20;99.90
12971;DHT22;6550;48.650;8.774;2023-02-05T04:39:31;4.50;99.90
12971;DHT22;6550;48.650;8.774;2023-02-05T04:41:58;4.50;99.90
12971;DHT22;6550;48.650;8.774;2023-02-05T04:46:54;4.50;99.90
12971;DHT22;6550;48.650;8.774;2023-02-05T04:49:21;4.60;99.90
12971;DHT22;6550;48.650;8.774;2023-02-05T04:51:48;4.60;99.90
12971;DHT22;6550;48.650;8.774;2023-02-05T04:54:17;4.60;99.90
12971;DHT22;6550;48.650;8.774;2023-02-05T05:06:41;4.80;99.90
12971;DHT22;6550;48.650;8.774;2023-02-05T05:11:38;4.80;99.90
12971;DHT22;6550;48.650;8.774;2023-02-05T05:14:07;4.80;99.90
12971;DHT22;6550;48.650;8.774;2023-02-05T05:16:34;4.70;99.90
12971;DHT22;6550;48.650;8.774;2023-02-05T05:19:03;4.70;99.90
12971;DHT22;6550;48.650;8.774;2023-02-05T05:21:31;4.90;99.90
12971;DHT22;6550;48.650;8.774;2023-02-05T05:23:57;5.60;99.90
12971;DHT22;6550;48.650;8.774;2023-02-05T05:26:24;5.40;99.90
12971;DHT22;6550;48.650;8.774;2023-02-05T05:28:54;5.00;99.90
12971;DHT22;6550;48.650;8.774;2023-02-05T05:31:25;4.80;99.90
12971;DHT22;6550;48.650;8.774;2023-02-05T05:33:54;4.80;99.90
12971;DHT22;6550;48.650;8.774;2023-02-05T05:36:20;4.80;99.90
12971;DHT22;6550;48.650;8.774;2023-02-05T05:38:52;4.80;99.90
12971;DHT22;6550;48.650;8.774;2023-02-05T05:41:23;4.80;99.90
12971;DHT22;6550;48.650;8.774;2023-02-05T05:44:09;5.00;99.90
12971;DHT22;6550;48.650;8.774;2023-02-05T05:46:38;4.90;99.90
12971;DHT22;6550;48.650;8.774;2023-02-05T05:49:05;4.80;99.90
12971;DHT22;6550;48.650;8.774;2023-02-05T05:51:31;4.80;99.90
12971;DHT22;6550;48.650;8.774;2023-02-05T05:56:31;4.90;99.90
12971;DHT22;6550;48.650;8.774;2023-02-05T05:58:59;5.00;99.90
12971;DHT22;6550;48.650;8.774;2023-02-05T06:01:28;4.80;99.90
12971;DHT22;6550;48.650;8.774;2023-02-05T06:03:57;4.70;99.90
12971;DHT22;6550;48.650;8.774;2023-02-05T06:06:26;5.10;99.90
12971;DHT22;6550;48.650;8.774;2023-02-05T06:08:53;4.80;99.90
12971;DHT22;6550;48.650;8.774;2023-02-05T06:11:22;5.10;99.90
12971;DHT22;6550;48.650;8.774;2023-02-05T06:13:52;4.70;99.90
12971;DHT22;6550;48.650;8.774;2023-02-05T06:16:18;4.80;99.90
12971;DHT22;6550;48.650;8.774;2023-02-05T06:18:47;4.80;99.90
12971;DHT22;6550;48.650;8.774;2023-02-05T06:21:16;4.80;99.90
12971;DHT22;6550;48.650;8.774;2023-02-05T06:31:05;5.00;99.90
12971;DHT22;6550;48.650;8.774;2023-02-05T06:33:32;4.90;99.90
12971;DHT22;6550;48.650;8.774;2023-02-05T06:36:01;4.90;99.90
12971;DHT22;6550;48.650;8.774;2023-02-05T06:38:32;5.00;99.90
12971;DHT22;6550;48.650;8.774;2023-02-05T06:40:58;5.00;99.90
12971;DHT22;6550;48.650;8.774;2023-02-05T06:43:27;4.80;99.90
12971;DHT22;6550;48.650;8.774;2023-02-05T06:45:54;4.80;99.90
12971;DHT22;6550;48.650;8.774;2023-02-05T06:48:21;4.70;99.90
12971;DHT22;6550;48.650;8.774;2023-02-05T06:50:48;4.90;99.90
12971;DHT22;6550;48.650;8.774;2023-02-05T06:53:14;4.80;99.90
12971;DHT22;6550;48.650;8.774;2023-02-05T06:55:41;4.90;99.90
12971;DHT22;6550;48.650;8.774;2023-02-05T06:58:10;4.90;99.90
12971;DHT22;6550;48.650;8.774;2023-02-05T07:00:37;4.80;99.90
12971;DHT22;6550;48.650;8.774;2023-02-05T07:03:04;4.80;99.90
12971;DHT22;6550;48.650;8.774;2023-02-05T07:05:32;4.70;99.90
12971;DHT22;6550;48.650;8.774;2023-02-05T07:08:02;4.90;99.90
12971;DHT22;6550;48.650;8.774;2023-02-05T07:10:32;4.90;99.90
12971;DHT22;6550;48.650;8.774;2023-02-05T07:12:58;4.90;99.90
12971;DHT22;6550;48.650;8.774;2023-02-05T07:15:25;4.80;99.90
12971;DHT22;6550;48.650;8.774;2023-02-05T07:17:52;4.90;99.90
12971;DHT22;6550;48.650;8.774;2023-02-05T07:20:21;4.80;99.90
12971;DHT22;6550;48.650;8.774;2023-02-05T07:22:48;4.90;99.90
12971;DHT22;6550;48.650;8.774;2023-02-05T07:25:15;4.90;99.90
12971;DHT22;6550;48.650;8.774;2023-02-05T07:27:42;5.00;99.90
12971;DHT22;6550;48.650;8.774;2023-02-05T07:30:09;5.00;99.90
12971;DHT22;6550;48.650;8.774;2023-02-05T07:32:38;5.00;99.90
12971;DHT22;6550;48.650;8.774;2023-02-05T07:35:05;5.10;99.90
12971;DHT22;6550;48.650;8.774;2023-02-05T07:37:32;5.10;99.90
12971;DHT22;6550;48.650;8.774;2023-02-05T07:39:59;5.10;99.90
12971;DHT22;6550;48.650;8.774;2023-02-05T07:42:28;5.10;99.90
12971;DHT22;6550;48.650;8.774;2023-02-05T07:44:57;5.10;99.90
12971;DHT22;6550;48.650;8.774;2023-02-05T07:47:23;5.20;99.90
12971;DHT22;6550;48.650;8.774;2023-02-05T07:49:53;5.40;99.90
12971;DHT22;6550;48.650;8.774;2023-02-05T07:52:22;5.40;99.90
12971;DHT22;6550;48.650;8.774;2023-02-05T07:54:48;5.20;99.90
12971;DHT22;6550;48.650;8.774;2023-02-05T07:57:17;5.30;99.90
12971;DHT22;6550;48.650;8.774;2023-02-05T07:59:44;5.20;99.90
12971;DHT22;6550;48.650;8.774;2023-02-05T08:02:13;5.80;99.90
12971;DHT22;6550;48.650;8.774;2023-02-05T08:04:42;5.70;99.90
12971;DHT22;6550;48.650;8.774;2023-02-05T08:07:14;5.30;99.90
12971;DHT22;6550;48.650;8.774;2023-02-05T08:09:41;5.40;99.90
12971;DHT22;6550;48.650;8.774;2023-02-05T08:12:10;5.40;99.90
12971;DHT22;6550;48.650;8.774;2023-02-05T08:14:39;5.30;99.90
12971;DHT22;6550;48.650;8.774;2023-02-05T08:17:06;5.40;99.90
12971;DHT22;6550;48.650;8.774;2023-02-05T08:19:35;5.40;99.90
12971;DHT22;6550;48.650;8.774;2023-02-05T08:22:02;5.40;99.90
12971;DHT22;6550;48.650;8.774;2023-02-05T08:24:30;5.60;99.90
12971;DHT22;6550;48.650;8.774;2023-02-05T08:26:59;9.40;99.90
12971;DHT22;6550;48.650;8.774;2023-02-05T08:29:28;5.60;99.90
12971;DHT22;6550;48.650;8.774;2023-02-05T08:31:55;5.60;99.90
12971;DHT22;6550;48.650;8.774;2023-02-05T08:34:22;5.80;99.90
12971;DHT22;6550;48.650;8.774;2023-02-05T08:36:53;6.00;99.90
12971;DHT22;6550;48.650;8.774;2023-02-05T08:39:23;6.00;99.90
12971;DHT22;6550;48.650;8.774;2023-02-05T08:41:52;6.00;99.90
12971;DHT22;6550;48.650;8.774;2023-02-05T08:44:22;5.90;99.90
12971;DHT22;6550;48.650;8.774;2023-02-05T08:46:48;5.90;99.90
12971;DHT22;6550;48.650;8.774;2023-02-05T08:49:16;5.90;99.90
12971;DHT22;6550;48.650;8.774;2023-02-05T08:51:43;5.90;99.90
12971;DHT22;6550;48.650;8.774;2023-02-05T08:54:10;5.80;99.90
12971;DHT22;6550;48.650;8.774;2023-02-05T08:56:39;6.50;99.90
12971;DHT22;6550;48.650;8.774;2023-02-05T08:59:06;5.90;99.90
12971;DHT22;6550;48.650;8.774;2023-02-05T09:01:34;5.70;99.90
12971;DHT22;6550;48.650;8.774;2023-02-05T09:04:07;5.90;99.90
12971;DHT22;6550;48.650;8.774;2023-02-05T09:06:36;5.90;99.90
12971;DHT22;6550;48.650;8.774;2023-02-05T09:09:03;6.00;99.90
12971;DHT22;6550;48.650;8.774;2023-02-05T09:11:29;6.10;99.90
12971;DHT22;6550;48.650;8.774;2023-02-05T09:13:57;6.20;99.90
12971;DHT22;6550;48.650;8.774;2023-02-05T09:16:24;6.20;99.90
12971;DHT22;6550;48.650;8.774;2023-02-05T09:18:55;6.10;99.90
12971;DHT22;6550;48.650;8.774;2023-02-05T09:21:23;6.80;99.90
12971;DHT22;6550;48.650;8.774;2023-02-05T09:23:50;6.10;99.90
12971;DHT22;6550;48.650;8.774;2023-02-05T09:26:25;6.10;99.90
12971;DHT22;6550;48.650;8.774;2023-02-05T09:28:51;6.50;99.90
12971;DHT22;6550;48.650;8.774;2023-02-05T09:31:22;6.80;99.90
12971;DHT22;6550;48.650;8.774;2023-02-05T09:33:51;6.20;99.90
12971;DHT22;6550;48.650;8.774;2023-02-05T09:36:20;6.10;99.90
12971;DHT22;6550;48.650;8.774;2023-02-05T09:38:48;7.00;99.90
12971;DHT22;6550;48.650;8.774;2023-02-05T09:41:43;6.10;99.90
12971;DHT22;6550;48.650;8.774;2023-02-05T09:47:03;6.20;99.90
12971;DHT22;6550;48.650;8.774;2023-02-05T09:49:41;6.30;99.90
12971;DHT22;6550;48.650;8.774;2023-02-05T09:52:21;6.30;99.90
12971;DHT22;6550;48.650;8.774;2023-02-05T09:55:00;6.40;99.90
12971;DHT22;6550;48.650;8.774;2023-02-05T09:57:34;7.30;99.90
12971;DHT22;6550;48.650;8.774;2023-02-05T10:05:25;12.40;99.90
12971;DHT22;6550;48.650;8.774;2023-02-05T10:08:17;12.30;99.90
12971;DHT22;6550;48.650;8.774;2023-02-05T10:10:49;12.90;99.90
12971;DHT22;6550;48.650;8.774;2023-02-05T10:16:17;14.70;99.90
12971;DHT22;6550;48.650;8.774;2023-02-05T10:27:26;17.50;99.90
12971;DHT22;6550;48.650;8.774;2023-02-05T10:30:24;17.60;99.90
12971;DHT22;6550;48.650;8.774;2023-02-05T10:32:58;18.10;99.90
12971;DHT22;6550;48.650;8.774;2023-02-05T10:36:06;18.40;99.90
12971;DHT22;6550;48.650;8.774;2023-02-05T10:38:42;18.40;99.90
12971;DHT22;6550;48.650;8.774;2023-02-05T10:41:42;18.70;99.90
12971;DHT22;6550;48.650;8.774;2023-02-05T10:44:43;18.70;99.90
12971;DHT22;6550;48.650;8.774;2023-02-05T10:47:17;19.00;99.90
12971;DHT22;6550;48.650;8.774;2023-02-05T10:49:51;19.30;99.90
12971;DHT22;6550;48.650;8.774;2023-02-05T10:52:23;19.00;99.70
12971;DHT22;6550;48.650;8.774;2023-02-05T10:54:52;19.30;98.80
12971;DHT22;6550;48.650;8.774;2023-02-05T10:57:21;19.20;97.80
12971;DHT22;6550;48.650;8.774;2023-02-05T10:59:57;19.20;97.80
12971;DHT22;6550;48.650;8.774;2023-02-05T11:02:37;19.30;98.10
12971;DHT22;6550;48.650;8.774;2023-02-05T11:07:57;19.50;97.50
12971;DHT22;6550;48.650;8.774;2023-02-05T11:10:25;18.90;96.20
12971;DHT22;6550;48.650;8.774;2023-02-05T11:13:15;18.00;95.80
12971;DHT22;6550;48.650;8.774;2023-02-05T11:18:29;15.70;99.90
12971;DHT22;6550;48.650;8.774;2023-02-05T11:20:59;15.20;99.90
12971;DHT22;6550;48.650;8.774;2023-02-05T11:23:28;14.20;99.90
12971;DHT22;6550;48.650;8.774;2023-02-05T11:25:59;14.50;99.90
12971;DHT22;6550;48.650;8.774;2023-02-05T11:28:28;14.40;99.90
12971;DHT22;6550;48.650;8.774;2023-02-05T11:33:27;13.20;99.90
12971;DHT22;6550;48.650;8.774;2023-02-05T11:36:04;13.00;99.90
12971;DHT22;6550;48.650;8.774;2023-02-05T11:41:36;12.30;99.90
12971;DHT22;6550;48.650;8.774;2023-02-05T11:44:24;13.10;99.90
12971;DHT22;6550;48.650;8.774;2023-02-05T11:46:52;12.60;99.90
12971;DHT22;6550;48.650;8.774;2023-02-05T11:49:42;12.60;99.90
12971;DHT22;6550;48.650;8.774;2023-02-05T11:52:11;12.10;99.90
12971;DHT22;6550;48.650;8.774;2023-02-05T11:54:43;12.20;99.90
12971;DHT22;6550;48.650;8.774;2023-02-05T12:02:36;11.40;99.90
12971;DHT22;6550;48.650;8.774;2023-02-05T12:15:57;11.10;99.90
12971;DHT22;6550;48.650;8.774;2023-02-05T12:42:24;9.60;99.90
12971;DHT22;6550;48.650;8.774;2023-02-05T12:47:44;9.20;99.90
12971;DHT22;6550;48.650;8.774;2023-02-05T12:56:35;9.40;99.90
12971;DHT22;6550;48.650;8.774;2023-02-05T12:59:17;10.40;99.90
12971;DHT22;6550;48.650;8.774;2023-02-05T13:01:50;10.10;99.90
12971;DHT22;6550;48.650;8.774;2023-02-05T13:04:41;10.90;99.90
12971;DHT22;6550;48.650;8.774;2023-02-05T13:07:12;9.70;99.90
12971;DHT22;6550;48.650;8.774;2023-02-05T13:09:49;10.10;99.90
12971;DHT22;6550;48.650;8.774;2023-02-05T13:12:21;9.80;99.90
12971;DHT22;6550;48.650;8.774;2023-02-05T13:17:27;9.40;99.90
12971;DHT22;6550;48.650;8.774;2023-02-05T13:20:00;9.30;99.90
12971;DHT22;6550;48.650;8.774;2023-02-05T13:22:37;9.40;99.90
12971;DHT22;6550;48.650;8.774;2023-02-05T13:25:35;9.70;99.90
12971;DHT22;6550;48.650;8.774;2023-02-05T13:28:33;9.20;99.90
12971;DHT22;6550;48.650;8.774;2023-02-05T13:31:24;9.10;99.90
12971;DHT22;6550;48.650;8.774;2023-02-05T13:34:02;9.80;99.90
12971;DHT22;6550;48.650;8.774;2023-02-05T13:36:42;9.20;99.90
12971;DHT22;6550;48.650;8.774;2023-02-05T14:01:24;8.50;99.90
12971;DHT22;6550;48.650;8.774;2023-02-05T14:04:01;8.50;99.90
12971;DHT22;6550;48.650;8.774;2023-02-05T14:06:33;8.60;99.90
12971;DHT22;6550;48.650;8.774;2023-02-05T14:09:07;8.50;99.90
12971;DHT22;6550;48.650;8.774;2023-02-05T14:11:56;8.50;99.90
12971;DHT22;6550;48.650;8.774;2023-02-05T14:14:36;8.80;99.90
12971;DHT22;6550;48.650;8.774;2023-02-05T14:19:54;8.40;99.90
12971;DHT22;6550;48.650;8.774;2023-02-05T14:22:43;8.00;99.90
12971;DHT22;6550;48.650;8.774;2023-02-05T14:30:51;8.20;99.90
12971;DHT22;6550;48.650;8.774;2023-02-05T14:44:01;7.90;99.90
12971;DHT22;6550;48.650;8.774;2023-02-05T14:46:51;8.40;99.90
12971;DHT22;6550;48.650;8.774;2023-02-05T14:52:02;7.90;99.90
12971;DHT22;6550;48.650;8.774;2023-02-05T14:54:32;7.90;99.90
12971;DHT22;6550;48.650;8.774;2023-02-05T14:57:22;7.80;99.90
12971;DHT22;6550;48.650;8.774;2023-02-05T14:59:52;7.80;99.90
12971;DHT22;6550;48.650;8.774;2023-02-05T15:07:46;7.80;99.90
12971;DHT22;6550;48.650;8.774;2023-02-05T15:10:20;7.40;99.90
12971;DHT22;6550;48.650;8.774;2023-02-05T15:13:07;7.70;99.90
12971;DHT22;6550;48.650;8.774;2023-02-05T15:15:38;7.70;99.90
12971;DHT22;6550;48.650;8.774;2023-02-05T15:20:45;7.70;99.90
12971;DHT22;6550;48.650;8.774;2023-02-05T15:23:19;8.50;99.90
12971;DHT22;6550;48.650;8.774;2023-02-05T15:25:57;7.20;99.90
12971;DHT22;6550;48.650;8.774;2023-02-05T15:28:44;7.70;99.90
12971;DHT22;6550;48.650;8.774;2023-02-05T15:31:28;7.70;99.90
12971;DHT22;6550;48.650;8.774;2023-02-05T15:36:51;7.70;99.90
12971;DHT22;6550;48.650;8.774;2023-02-05T15:39:29;7.70;99.90
12971;DHT22;6550;48.650;8.774;2023-02-05T15:42:00;7.60;99.90
12971;DHT22;6550;48.650;8.774;2023-02-05T15:44:31;8.60;99.90
12971;DHT22;6550;48.650;8.774;2023-02-05T15:47:04;7.40;99.90
12971;DHT22;6550;48.650;8.774;2023-02-05T15:49:40;7.40;99.90
12971;DHT22;6550;48.650;8.774;2023-02-05T15:52:22;7.40;99.90
12971;DHT22;6550;48.650;8.774;2023-02-05T15:54:53;7.50;99.90
12971;DHT22;6550;48.650;8.774;2023-02-05T15:57:31;7.20;99.90
12971;DHT22;6550;48.650;8.774;2023-02-05T15:59:59;7.40;99.90
12971;DHT22;6550;48.650;8.774;2023-02-05T16:02:29;7.30;99.90
12971;DHT22;6550;48.650;8.774;2023-02-05T16:05:13;7.20;99.90
12971;DHT22;6550;48.650;8.774;2023-02-05T16:07:42;7.20;99.90
12971;DHT22;6550;48.650;8.774;2023-02-05T16:10:23;7.30;99.90
12971;DHT22;6550;48.650;8.774;2023-02-05T16:13:15;7.30;99.90
12971;DHT22;6550;48.650;8.774;2023-02-05T16:15:53;7.30;99.90
12971;DHT22;6550;48.650;8.774;2023-02-05T16:18:32;7.00;99.90
12971;DHT22;6550;48.650;8.774;2023-02-05T16:21:05;7.20;99.90
12971;DHT22;6550;48.650;8.774;2023-02-05T16:23:49;8.10;99.90
12971;DHT22;6550;48.650;8.774;2023-02-05T16:26:30;7.70;99.90
12971;DHT22;6550;48.650;8.774;2023-02-05T16:29:06;7.00;99.90
12971;DHT22;6550;48.650;8.774;2023-02-05T16:31:56;7.00;99.90
12971;DHT22;6550;48.650;8.774;2023-02-05T16:34:24;6.90;99.90
12971;DHT22;6550;48.650;8.774;2023-02-05T16:36:53;6.70;99.90
12971;DHT22;6550;48.650;8.774;2023-02-05T16:39:27;6.60;99.90
12971;DHT22;6550;48.650;8.774;2023-02-05T16:42:03;7.20;99.90
12971;DHT22;6550;48.650;8.774;2023-02-05T16:44:35;6.70;99.90
12971;DHT22;6550;48.650;8.774;2023-02-05T16:47:17;6.90;99.90
12971;DHT22;6550;48.650;8.774;2023-02-05T16:49:46;6.60;99.90
12971;DHT22;6550;48.650;8.774;2023-02-05T16:52:32;6.60;99.90
12971;DHT22;6550;48.650;8.774;2023-02-05T16:57:55;6.70;99.90
12971;DHT22;6550;48.650;8.774;2023-02-05T17:00:30;6.70;99.90
12971;DHT22;6550;48.650;8.774;2023-02-05T17:03:06;6.70;99.90
12971;DHT22;6550;48.650;8.774;2023-02-05T17:05:39;6.60;99.90
12971;DHT22;6550;48.650;8.774;2023-02-05T17:08:09;6.60;99.90
12971;DHT22;6550;48.650;8.774;2023-02-05T17:10:49;6.60;99.90
12971;DHT22;6550;48.650;8.774;2023-02-05T17:16:30;6.70;99.90
12971;DHT22;6550;48.650;8.774;2023-02-05T17:18:58;6.80;99.90
12971;DHT22;6550;48.650;8.774;2023-02-05T17:21:33;6.80;99.90
12971;DHT22;6550;48.650;8.774;2023-02-05T17:24:02;6.70;99.90
12971;DHT22;6550;48.650;8.774;2023-02-05T17:26:40;6.70;99.90
12971;DHT22;6550;48.650;8.774;2023-02-05T17:29:14;6.70;99.90
12971;DHT22;6550;48.650;8.774;2023-02-05T17:31:43;6.70;99.90
12971;DHT22;6550;48.650;8.774;2023-02-05T17:34:10;6.70;99.90
12971;DHT22;6550;48.650;8.774;2023-02-05T17:36:39;7.30;99.90
12971;DHT22;6550;48.650;8.774;2023-02-05T17:39:08;6.80;99.90
12971;DHT22;6550;48.650;8.774;2023-02-05T17:41:36;6.60;99.90
12971;DHT22;6550;48.650;8.774;2023-02-05T17:44:21;6.50;99.90
12971;DHT22;6550;48.650;8.774;2023-02-05T17:46:49;6.40;99.90
12971;DHT22;6550;48.650;8.774;2023-02-05T17:49:19;5.90;99.90
12971;DHT22;6550;48.650;8.774;2023-02-05T17:51:46;6.90;99.90
12971;DHT22;6550;48.650;8.774;2023-02-05T17:54:17;7.00;99.90
12971;DHT22;6550;48.650;8.774;2023-02-05T17:56:45;6.90;99.90
12971;DHT22;6550;48.650;8.774;2023-02-05T17:59:18;6.90;99.90
12971;DHT22;6550;48.650;8.774;2023-02-05T18:01:46;6.70;99.90
12971;DHT22;6550;48.650;8.774;2023-02-05T18:04:14;6.60;99.90
12971;DHT22;6550;48.650;8.774;2023-02-05T18:06:45;6.60;99.90
12971;DHT22;6550;48.650;8.774;2023-02-05T18:09:16;7.00;99.90
12971;DHT22;6550;48.650;8.774;2023-02-05T18:11:44;6.60;99.90
12971;DHT22;6550;48.650;8.774;2023-02-05T18:14:11;6.50;99.90
12971;DHT22;6550;48.650;8.774;2023-02-05T18:16:40;6.50;99.90
12971;DHT22;6550;48.650;8.774;2023-02-05T18:19:09;6.50;99.90
12971;DHT22;6550;48.650;8.774;2023-02-05T18:21:41;6.40;99.90
12971;DHT22;6550;48.650;8.774;2023-02-05T18:24:08;6.40;99.90
12971;DHT22;6550;48.650;8.774;2023-02-05T18:26:35;6.40;99.90
12971;DHT22;6550;48.650;8.774;2023-02-05T18:29:01;6.40;99.90
12971;DHT22;6550;48.650;8.774;2023-02-05T18:31:33;6.40;99.90
12971;DHT22;6550;48.650;8.774;2023-02-05T18:34:03;6.30;99.90
12971;DHT22;6550;48.650;8.774;2023-02-05T18:36:29;6.30;99.90
12971;DHT22;6550;48.650;8.774;2023-02-05T18:38:58;6.30;99.90
12971;DHT22;6550;48.650;8.774;2023-02-05T18:41:27;6.30;99.90
12971;DHT22;6550;48.650;8.774;2023-02-05T18:43:55;6.10;99.90
12971;DHT22;6550;48.650;8.774;2023-02-05T18:46:22;6.10;99.90
12971;DHT22;6550;48.650;8.774;2023-02-05T18:48:50;6.30;99.90
12971;DHT22;6550;48.650;8.774;2023-02-05T18:51:19;6.30;99.90
12971;DHT22;6550;48.650;8.774;2023-02-05T18:53:46;6.30;99.90
12971;DHT22;6550;48.650;8.774;2023-02-05T18:56:18;6.30;99.90
12971;DHT22;6550;48.650;8.774;2023-02-05T18:58:52;5.90;99.90
12971;DHT22;6550;48.650;8.774;2023-02-05T19:01:20;6.30;99.90
12971;DHT22;6550;48.650;8.774;2023-02-05T19:03:46;6.20;99.90
12971;DHT22;6550;48.650;8.774;2023-02-05T19:06:15;6.20;99.90
12971;DHT22;6550;48.650;8.774;2023-02-05T19:08:42;6.20;99.90
12971;DHT22;6550;48.650;8.774;2023-02-05T19:11:18;6.20;99.90
12971;DHT22;6550;48.650;8.774;2023-02-05T19:13:56;6.20;99.90
12971;DHT22;6550;48.650;8.774;2023-02-05T19:16:25;6.10;99.90
12971;DHT22;6550;48.650;8.774;2023-02-05T19:18:55;6.70;99.90
12971;DHT22;6550;48.650;8.774;2023-02-05T19:21:22;6.70;99.90
12971;DHT22;6550;48.650;8.774;2023-02-05T19:23:53;6.20;99.90
12971;DHT22;6550;48.650;8.774;2023-02-05T19:26:22;6.50;99.90
12971;DHT22;6550;48.650;8.774;2023-02-05T19:28:58;5.90;99.90
12971;DHT22;6550;48.650;8.774;2023-02-05T19:31:30;6.50;99.90
12971;DHT22;6550;48.650;8.774;2023-02-05T19:34:00;6.10;99.90
12971;DHT22;6550;48.650;8.774;2023-02-05T19:36:32;7.10;99.90
12971;DHT22;6550;48.650;8.774;2023-02-05T19:39:05;5.70;99.90
12971;DHT22;6550;48.650;8.774;2023-02-05T19:41:35;6.00;99.90
12971;DHT22;6550;48.650;8.774;2023-02-05T19:44:04;6.10;99.90
12971;DHT22;6550;48.650;8.774;2023-02-05T19:46:37;6.10;99.90
12971;DHT22;6550;48.650;8.774;2023-02-05T19:49:08;6.00;99.90
12971;DHT22;6550;48.650;8.774;2023-02-05T19:51:37;6.00;99.90
12971;DHT22;6550;48.650;8.774;2023-02-05T19:54:06;6.10;99.90
12971;DHT22;6550;48.650;8.774;2023-02-05T19:56:35;6.20;99.90
12971;DHT22;6550;48.650;8.774;2023-02-05T19:59:04;6.00;99.90
12971;DHT22;6550;48.650;8.774;2023-02-05T20:01:33;7.10;99.90
12971;DHT22;6550;48.650;8.774;2023-02-05T20:04:07;6.10;99.90
12971;DHT22;6550;48.650;8.774;2023-02-05T20:06:38;6.10;99.90
12971;DHT22;6550;48.650;8.774;2023-02-05T20:09:07;6.10;99.90
12971;DHT22;6550;48.650;8.774;2023-02-05T20:11:37;6.00;99.90
12971;DHT22;6550;48.650;8.774;2023-02-05T20:14:04;6.00;99.90
12971;DHT22;6550;48.650;8.774;2023-02-05T20:16:31;6.00;99.90